Time;durP1;ratioP1;P1;durP2;ratioP2;P2;SDS_P1;SDS_P2;PMS_P1;PMS_P2;Temp;Humidity;BMP_temperature;BMP_pressure;BME280_temperature;BME280_humidity;BME280_pressure;Samples;Min_cycle;Max_cycle;Signal;HPM_P1;HPM_P2
2022/04/22 00:05:26;;;;;;;1.92;1.73;;;;;;;19.66;40.48;96038.53;10325559;28;20051;-57
2022/04/22 00:16:40;;;;;;;1.73;1.63;;;;;;;19.64;40.61;96027.28;10285181;28;20053;-57
2022/04/22 00:22:00;;;;;;;2.45;1.92;;;;;;;19.63;40.55;96033.03;10320840;28;20077;-57
2022/04/22 00:27:19;;;;;;;2.15;1.90;;;;;;;19.62;40.50;96026.03;10330454;28;20058;-58
2022/04/22 00:32:39;;;;;;;1.98;1.77;;;;;;;19.61;40.51;96019.09;10327598;28;20050;-57
2022/04/22 00:37:59;;;;;;;1.92;1.67;;;;;;;19.60;40.63;96009.38;10337284;28;20038;-58
2022/04/22 00:43:21;;;;;;;2.75;1.88;;;;;;;19.60;40.56;96020.19;10335321;28;20049;-57
2022/04/22 00:48:40;;;;;;;1.80;1.70;;;;;;;19.59;40.47;96014.00;10314175;28;20129;-57
2022/04/22 00:54:02;;;;;;;1.70;1.60;;;;;;;19.56;40.46;95996.59;10316579;28;20054;-57
2022/04/22 00:59:21;;;;;;;1.70;1.60;;;;;;;19.56;40.41;95993.06;10320386;28;20097;-57
2022/04/22 01:10:19;;;;;;;1.90;1.60;;;;;;;19.54;40.65;95979.94;10314142;28;20421;-57
2022/04/22 01:15:39;;;;;;;1.90;1.60;;;;;;;19.52;40.45;95974.09;10317781;28;20066;-58
2022/04/22 01:21:00;;;;;;;1.95;1.80;;;;;;;19.54;40.49;95979.13;10335490;28;20050;-57
2022/04/22 01:26:19;;;;;;;1.60;1.50;;;;;;;19.52;40.54;95971.38;10325001;28;20058;-57
2022/04/22 01:31:39;;;;;;;1.73;1.63;;;;;;;19.52;40.41;95970.56;10307005;28;20588;-57
2022/04/22 01:36:58;;;;;;;1.40;1.30;;;;;;;19.50;40.53;95956.63;10322552;28;20051;-57
2022/04/22 01:42:20;;;;;;;1.80;1.70;;;;;;;19.48;40.45;95959.69;10319627;28;20057;-57
2022/04/22 01:47:39;;;;;;;1.83;1.70;;;;;;;19.47;40.64;95952.72;10304499;28;20062;-57
2022/04/22 01:52:59;;;;;;;2.67;1.60;;;;;;;19.48;40.52;95945.38;10322916;28;20057;-57
2022/04/22 01:58:19;;;;;;;1.77;1.67;;;;;;;19.47;40.48;95933.03;10309919;28;20058;-57
2022/04/22 02:03:38;;;;;;;1.70;1.60;;;;;;;19.46;40.55;95934.13;10312970;28;20054;-57
2022/04/22 02:08:58;;;;;;;1.45;1.35;;;;;;;19.45;40.41;95927.97;10336068;28;20042;-57
2022/04/22 02:14:17;;;;;;;1.90;1.70;;;;;;;19.43;40.35;95924.81;10320943;28;20069;-57
2022/04/22 02:19:37;;;;;;;1.65;1.50;;;;;;;19.42;40.30;95917.84;10313838;28;20046;-56
2022/04/22 02:24:57;;;;;;;1.60;1.50;;;;;;;19.42;40.52;95917.84;10322625;28;20401;-56
2022/04/22 02:30:18;;;;;;;2.03;1.70;;;;;;;19.41;40.42;95915.50;10338908;28;20486;-57
2022/04/22 02:35:38;;;;;;;1.63;1.40;;;;;;;19.40;40.41;95909.28;10339880;28;20038;-57
2022/04/22 02:46:35;;;;;;;1.80;1.53;;;;;;;19.39;40.38;95901.56;10301354;28;20034;-57
2022/04/22 02:51:55;;;;;;;1.38;1.27;;;;;;;19.37;40.48;95896.50;10334520;28;20477;-57
2022/04/22 02:57:15;;;;;;;1.70;1.60;;;;;;;19.37;40.28;95883.00;10321441;28;20101;-57
2022/04/22 03:02:35;;;;;;;2.15;1.30;;;;;;;19.35;40.50;95886.03;10315319;28;20049;-58
2022/04/22 03:07:55;;;;;;;1.55;1.45;;;;;;;19.34;40.39;95876.34;10331948;28;20065;-56
2022/04/22 03:13:17;;;;;;;1.40;1.30;;;;;;;19.34;40.53;95878.25;10331427;28;20559;-57
2022/04/22 03:18:37;;;;;;;1.48;1.38;;;;;;;19.33;40.50;95876.72;10335146;28;20054;-57
2022/04/22 03:23:57;;;;;;;1.60;1.50;;;;;;;19.32;40.47;95875.13;10330124;28;20046;-57
2022/04/22 03:29:16;;;;;;;1.45;1.30;;;;;;;19.30;40.42;95866.59;10333991;28;20054;-57
2022/04/22 03:34:35;;;;;;;1.65;1.55;;;;;;;19.30;40.53;95869.28;10325830;28;20063;-57
2022/04/22 03:39:55;;;;;;;1.60;1.50;;;;;;;19.29;40.48;95859.63;10333148;28;20050;-57
2022/04/22 03:45:14;;;;;;;1.45;1.35;;;;;;;19.28;40.54;95874.25;10336239;28;20128;-57
2022/04/22 03:50:34;;;;;;;1.65;1.52;;;;;;;19.30;40.31;95866.59;10322016;28;20051;-57
2022/04/22 03:55:54;;;;;;;2.13;1.40;;;;;;;19.28;40.53;95861.53;10330471;28;20118;-57
2022/04/22 04:01:13;;;;;;;1.48;1.38;;;;;;;19.29;40.53;95859.63;10318604;28;20051;-57
2022/04/22 04:06:35;;;;;;;2.50;1.58;;;;;;;19.29;40.31;95857.69;10322439;28;20046;-57
2022/04/22 04:17:38;;;;;;;2.40;1.33;;;;;;;19.33;40.48;95852.41;10325655;28;20055;-57
2022/04/22 04:23:16;;;;;;;3.70;3.40;;;;;;;19.33;39.61;95850.47;10351545;28;20849;-56
2022/04/22 04:28:36;;;;;;;3.80;3.40;;;;;;;19.24;37.59;95849.06;10331477;28;20105;-56
2022/04/22 04:33:55;;;;;;;2.30;2.00;;;;;;;19.27;39.97;95846.47;10322966;28;20076;-58
2022/04/22 04:39:15;;;;;;;2.25;2.05;;;;;;;19.34;39.92;95845.84;10322419;28;20101;-57
2022/04/22 04:44:36;;;;;;;2.00;1.73;;;;;;;19.39;40.07;95842.13;10313749;28;20054;-58
2022/04/22 04:49:55;;;;;;;3.90;2.10;;;;;;;19.44;40.33;95849.97;10322631;28;20046;-59
2022/04/22 04:55:15;;;;;;;4.15;1.98;;;;;;;19.48;40.64;95843.53;10323059;28;20417;-59
2022/04/22 05:00:34;;;;;;;3.20;1.95;;;;;;;19.52;40.76;95852.53;10317450;28;20073;-58
2022/04/22 05:05:54;;;;;;;2.47;1.80;;;;;;;19.54;40.92;95844.84;10328154;28;20121;-59
2022/04/22 05:11:14;;;;;;;2.05;1.90;;;;;;;19.58;40.91;95834.13;10324934;28;20536;-58
2022/04/22 05:16:33;;;;;;;8.95;8.10;;;;;;;19.20;33.99;95834.69;10324594;28;20062;-58
2022/04/22 05:21:55;;;;;;;10.32;9.02;;;;;;;18.26;34.01;95847.38;10305884;28;20042;-58
2022/04/22 05:27:14;;;;;;;7.25;6.55;;;;;;;18.31;36.03;95829.06;10324751;28;20058;-57
2022/04/22 05:32:36;;;;;;;10.80;7.07;;;;;;;18.76;35.91;95836.16;10323510;28;20046;-57
2022/04/22 05:37:57;;;;;;;20.95;6.78;;;;;;;19.00;37.27;95826.44;10328675;28;20054;-57
2022/04/22 05:43:17;;;;;;;17.08;5.78;;;;;;;19.16;38.04;95824.56;10326824;28;20054;-57
2022/04/22 05:48:39;;;;;;;12.77;5.38;;;;;;;19.29;38.05;95822.59;10328433;28;20053;-57
2022/04/22 05:53:58;;;;;;;8.75;4.75;;;;;;;19.38;38.19;95830.53;10319467;28;20049;-57
2022/04/22 05:59:18;;;;;;;15.05;4.57;;;;;;;19.46;38.35;95826.88;10335805;28;20417;-57
2022/04/22 06:04:37;;;;;;;11.15;7.45;;;;;;;19.51;37.49;95825.84;10332576;28;20065;-58
2022/04/22 06:15:35;;;;;;;9.65;8.75;;;;;;;19.17;33.63;95836.94;10304345;28;20058;-57
2022/04/22 06:20:54;;;;;;;9.93;8.93;;;;;;;19.07;33.60;95832.03;10310425;28;20050;-57
2022/04/22 06:26:14;;;;;;;11.85;8.65;;;;;;;19.00;33.47;95837.25;10293094;28;20481;-57
2022/04/22 06:31:35;;;;;;;8.80;7.40;;;;;;;18.99;34.07;95832.97;10302191;28;20043;-59
2022/04/22 06:36:55;;;;;;;6.18;5.25;;;;;;;19.13;34.96;95827.16;10295525;28;20118;-57
2022/04/22 06:47:54;;;;;;;;;;;;;;;19.28;35.20;95812.91;10295294;28;20051;-57
2022/04/22 06:53:18;;;;;;;5.07;3.33;;;;;;;19.35;35.73;95809.63;10331828;28;19929;-58
2022/04/22 06:58:38;;;;;;;4.35;3.40;;;;;;;19.39;36.00;95809.72;10270727;28;20501;-58
2022/04/22 07:03:58;;;;;;;4.70;3.83;;;;;;;19.41;36.20;95805.53;10294633;28;20118;-58
2022/04/22 07:09:18;;;;;;;5.63;3.75;;;;;;;19.43;36.54;95807.91;10322790;28;20038;-58
2022/04/22 07:14:39;;;;;;;3.97;3.60;;;;;;;19.45;36.68;95811.81;10327754;28;20513;-57
2022/04/22 07:20:05;;;;;;;4.22;3.75;;;;;;;19.47;37.15;95806.06;10344414;28;20136;-57
2022/04/22 07:25:26;;;;;;;4.30;3.45;;;;;;;19.46;37.39;95807.97;10330205;28;20046;-57
2022/04/22 07:30:50;;;;;;;4.40;3.20;;;;;;;19.47;37.32;95812.25;10340299;28;20051;-57
2022/04/22 07:36:10;;;;;;;5.10;3.60;;;;;;;19.49;37.67;95812.69;10330264;28;20540;-58
2022/04/22 07:41:31;;;;;;;6.03;3.95;;;;;;;19.49;37.20;95812.69;10329853;28;20058;-57
2022/04/22 07:46:58;;;;;;;5.80;4.28;;;;;;;19.49;37.02;95812.69;10330829;28;20470;-56
2022/04/22 07:52:17;;;;;;;9.20;5.03;;;;;;;19.48;36.75;95811.13;10334449;28;20054;-58
2022/04/22 07:57:40;;;;;;;11.13;5.63;;;;;;;19.49;36.68;95803.81;10325587;28;20134;-58
2022/04/22 08:03:00;;;;;;;8.18;4.68;;;;;;;19.48;36.66;95803.03;10327730;28;20058;-58
2022/04/22 08:08:19;;;;;;;8.15;4.55;;;;;;;19.47;36.69;95801.44;10324227;28;20058;-58
2022/04/22 08:13:38;;;;;;;5.57;4.50;;;;;;;19.49;36.69;95803.81;10330802;28;20050;-57
2022/04/22 08:18:58;;;;;;;7.70;5.03;;;;;;;19.48;37.42;95797.63;10337556;28;20054;-57
2022/04/22 08:24:17;;;;;;;8.75;4.60;;;;;;;19.49;37.41;95793.78;10330573;28;20050;-58
2022/04/22 08:29:37;;;;;;;7.80;5.55;;;;;;;19.50;37.67;95787.25;10342613;28;20045;-58
2022/04/22 08:34:57;;;;;;;7.13;4.90;;;;;;;19.51;38.26;95794.22;10330495;28;20112;-57
2022/04/22 08:40:17;;;;;;;5.70;4.55;;;;;;;19.50;38.33;95792.66;10333961;28;20142;-59
2022/04/22 08:45:36;;;;;;;5.68;4.50;;;;;;;19.51;38.79;95799.63;10351783;28;20092;-58
2022/04/22 08:50:58;;;;;;;6.72;4.43;;;;;;;19.52;38.86;95793.09;10327421;28;20050;-58
2022/04/22 08:56:18;;;;;;;6.22;3.83;;;;;;;19.51;39.07;95788.03;10326622;28;20065;-57
2022/04/22 09:01:38;;;;;;;4.32;3.92;;;;;;;19.51;39.15;95790.72;10332550;28;20058;-57
2022/04/22 09:06:59;;;;;;;5.10;3.97;;;;;;;19.52;40.41;95798.50;10306089;28;20050;-57
2022/04/22 09:12:23;;;;;;;4.95;3.75;;;;;;;19.51;40.73;95791.50;10328580;28;20129;-57
2022/04/22 09:17:43;;;;;;;4.18;3.58;;;;;;;19.51;40.75;95798.84;10334385;28;20057;-58
2022/04/22 09:23:21;;;;;;;4.28;3.55;;;;;;;19.51;40.90;95791.50;10321454;28;20050;-57
2022/04/22 09:28:40;;;;;;;5.07;3.70;;;;;;;19.52;40.84;95797.69;10320176;28;20046;-59
2022/04/22 09:34:00;;;;;;;4.90;3.63;;;;;;;19.52;40.97;95798.50;10336100;28;20045;-58
2022/04/22 09:45:03;;;;;;;4.05;3.45;;;;;;;19.51;41.03;95780.72;10323860;28;20069;-57
2022/04/22 09:50:42;;;;;;;5.13;3.80;;;;;;;19.52;41.08;95781.47;10334575;28;20160;-58
2022/04/22 09:56:09;;;;;;;4.68;3.55;;;;;;;19.51;41.14;95788.81;10326267;28;20054;-58
2022/04/22 10:01:28;;;;;;;3.55;3.20;;;;;;;19.52;41.43;95786.88;10326166;28;20398;-60
2022/04/22 10:06:50;;;;;;;4.15;3.30;;;;;;;19.51;41.71;95778.00;10307878;28;20073;-58
2022/04/22 10:12:11;;;;;;;4.75;3.60;;;;;;;19.51;41.77;95780.72;10318693;28;20792;-60
2022/04/22 10:17:31;;;;;;;4.22;3.42;;;;;;;19.51;41.96;95791.50;10341300;28;20042;-61
2022/04/22 10:22:52;;;;;;;3.88;3.25;;;;;;;19.51;41.85;95774.53;10326680;28;20108;-60
2022/04/22 10:28:12;;;;;;;4.90;3.13;;;;;;;19.50;42.14;95779.16;10342626;28;20042;-60
2022/04/22 10:33:40;;;;;;;4.97;3.25;;;;;;;19.51;42.30;95771.81;10318002;28;20516;-60
2022/04/22 10:38:59;;;;;;;5.45;3.28;;;;;;;19.51;42.61;95767.19;10315266;28;20050;-60
2022/04/22 10:50:24;;;;;;;5.32;3.55;;;;;;;19.52;43.05;95762.56;10333961;28;20690;-60
2022/04/22 10:55:43;;;;;;;7.55;3.20;;;;;;;19.51;42.98;95759.09;10331200;28;20054;-60
2022/04/22 11:01:03;;;;;;;5.75;3.33;;;;;;;19.50;43.11;95759.44;10328926;28;20405;-57
2022/04/22 11:06:23;;;;;;;3.40;3.10;;;;;;;19.51;43.17;95763.72;10309529;28;20051;-57
2022/04/22 11:11:43;;;;;;;4.28;3.33;;;;;;;19.50;43.30;95751.34;10331524;28;20105;-57
2022/04/22 11:17:36;;;;;;;3.45;3.13;;;;;;;19.49;43.56;95747.84;10310573;28;20058;-57
2022/04/22 11:22:56;;;;;;;4.13;2.60;;;;;;;19.49;43.42;95747.09;10290038;28;20054;-57
2022/04/22 11:28:16;;;;;;;4.68;2.83;;;;;;;19.48;43.42;95749.00;10306404;28;20053;-58
2022/04/22 11:33:53;;;;;;;3.47;3.10;;;;;;;19.48;43.88;95749.00;10310802;28;20501;-58
2022/04/22 11:39:15;;;;;;;4.07;2.78;;;;;;;19.47;43.66;95747.44;10325625;28;20058;-58
2022/04/22 11:44:34;;;;;;;3.40;3.10;;;;;;;19.48;43.90;95746.31;10329823;28;20054;-58
2022/04/22 11:49:56;;;;;;;3.10;2.80;;;;;;;19.46;43.97;95753.16;10342827;28;20049;-59
2022/04/22 11:55:15;;;;;;;4.00;3.00;;;;;;;19.47;43.92;95747.44;10297155;28;20057;-58
2022/04/22 12:06:16;;;;;;;3.08;2.85;;;;;;;19.46;44.27;95756.66;10291894;28;20573;-59
2022/04/22 12:11:43;;;;;;;3.10;2.80;;;;;;;19.45;44.23;95755.09;10299326;28;20046;-58
2022/04/22 12:17:04;;;;;;;3.78;3.00;;;;;;;19.44;44.24;95758.91;10318958;28;20122;-58
2022/04/22 12:22:24;;;;;;;2.92;2.63;;;;;;;19.45;44.42;95752.41;10330533;28;20468;-59
2022/04/22 12:28:04;;;;;;;3.28;2.75;;;;;;;19.45;44.84;95754.31;10283865;28;20070;-63
2022/04/22 12:33:24;;;;;;;3.00;2.70;;;;;;;19.46;44.55;95756.66;10284532;28;20047;-61
2022/04/22 12:38:44;;;;;;;3.75;3.03;;;;;;;19.45;44.66;95747.00;10295639;28;20137;-59
2022/04/22 12:44:13;;;;;;;3.67;2.78;;;;;;;19.46;44.78;95747.75;10272322;28;20057;-59
2022/04/22 12:55:15;;;;;;;;;;;;;;;19.43;44.98;95740.38;10286860;28;20478;-59
2022/04/22 13:00:35;;;;;;;3.47;2.50;;;;;;;19.43;44.60;95749.25;10292772;28;19930;-60
2022/04/22 13:05:54;;;;;;;3.30;2.58;;;;;;;19.42;44.73;95749.59;10291079;28;20909;-59
2022/04/22 13:11:16;;;;;;;2.70;2.50;;;;;;;19.42;44.80;95752.31;10290511;28;20123;-60
2022/04/22 13:16:36;;;;;;;3.33;2.85;;;;;;;19.41;44.71;95754.22;10331217;28;20389;-60
2022/04/22 13:21:57;;;;;;;3.20;2.75;;;;;;;19.42;44.94;95760.41;10331789;28;20433;-60
2022/04/22 13:27:17;;;;;;;4.35;2.25;;;;;;;19.41;44.82;95762.31;10345069;28;20038;-60
2022/04/22 13:32:37;;;;;;;3.03;2.67;;;;;;;19.41;44.77;95765.03;10330391;28;20389;-60
2022/04/22 13:37:56;;;;;;;3.42;2.60;;;;;;;19.40;44.67;95771.53;10336114;28;20042;-60
2022/04/22 13:43:15;;;;;;;3.30;2.70;;;;;;;19.40;44.61;95781.56;10341313;28;20052;-61
2022/04/22 13:54:13;;;;;;;3.15;2.50;;;;;;;19.41;44.77;95780.44;10329945;28;20158;-60
2022/04/22 13:59:33;;;;;;;5.20;2.53;;;;;;;19.39;44.77;95783.50;10330383;28;20054;-61
2022/04/22 14:04:52;;;;;;;4.97;2.80;;;;;;;19.39;44.65;95786.19;10343822;28;20054;-61
2022/04/22 14:10:12;;;;;;;3.60;2.65;;;;;;;19.39;44.65;95788.91;10311327;28;20536;-60
2022/04/22 14:15:32;;;;;;;2.70;2.40;;;;;;;19.39;44.63;95791.59;10317000;28;20089;-60
2022/04/22 14:20:54;;;;;;;3.22;2.80;;;;;;;19.39;44.56;95783.50;10301119;28;20050;-60
2022/04/22 14:26:13;;;;;;;2.65;2.42;;;;;;;19.38;44.64;95778.44;10308088;28;20050;-61
2022/04/22 14:31:33;;;;;;;2.70;2.50;;;;;;;19.38;44.74;95784.63;10311445;28;20128;-61
2022/04/22 14:36:53;;;;;;;3.53;2.55;;;;;;;19.38;44.69;95787.31;10314170;28;20050;-61
2022/04/22 14:42:12;;;;;;;2.63;2.40;;;;;;;19.40;44.92;95795.06;10319334;28;20069;-61
2022/04/22 14:47:32;;;;;;;6.30;5.70;;;;;;;19.38;44.21;95794.63;10320815;28;20046;-61
2022/04/22 14:52:51;;;;;;;9.82;7.50;;;;;;;19.24;41.19;95795.06;10325726;28;20420;-61
2022/04/22 14:58:10;;;;;;;8.80;7.10;;;;;;;19.17;40.54;95803.78;10318847;28;20054;-61
2022/04/22 15:03:30;;;;;;;7.47;6.68;;;;;;;19.10;39.71;95792.78;10317213;28;20457;-61
2022/04/22 15:08:50;;;;;;;8.57;6.53;;;;;;;19.07;39.48;95796.94;10332630;28;20046;-61
2022/04/22 15:14:11;;;;;;;8.77;6.63;;;;;;;19.06;39.45;95805.38;10332564;28;20065;-61
2022/04/22 15:25:08;;;;;;;7.00;6.27;;;;;;;19.01;39.26;95801.00;10329483;28;20058;-61
2022/04/22 15:30:59;;;;;;;7.60;6.75;;;;;;;19.02;39.03;95794.50;10332645;28;20414;-61
2022/04/22 15:36:18;;;;;;;6.85;6.25;;;;;;;19.02;39.19;95801.81;10327786;28;20105;-61
2022/04/22 15:41:37;;;;;;;7.93;6.53;;;;;;;19.03;38.80;95801.44;10348616;28;20039;-62
2022/04/22 15:47:00;;;;;;;6.55;5.95;;;;;;;19.03;38.85;95801.44;10334758;28;20178;-62
2022/04/22 15:52:20;;;;;;;7.18;5.93;;;;;;;19.03;38.94;95801.44;10331166;28;20564;-61
2022/04/22 15:57:42;;;;;;;6.93;6.28;;;;;;;19.05;38.79;95804.63;10346881;28;20043;-61
2022/04/22 16:03:02;;;;;;;6.60;6.00;;;;;;;19.06;38.68;95802.69;10314028;28;20122;-60
2022/04/22 16:08:22;;;;;;;4.40;3.70;;;;;;;19.08;40.22;95805.81;10326386;28;20417;-60
2022/04/22 16:19:20;;;;;;;4.37;3.83;;;;;;;19.19;41.00;95809.59;10338157;28;20087;-60
2022/04/22 16:24:40;;;;;;;4.28;3.63;;;;;;;19.24;41.29;95803.16;10326209;28;20050;-60
2022/04/22 16:29:59;;;;;;;4.22;3.83;;;;;;;19.29;41.34;95816.41;10341214;28;20045;-61
2022/04/22 16:35:19;;;;;;;4.25;3.53;;;;;;;19.32;41.46;95821.13;10329968;28;20425;-62
2022/04/22 16:40:40;;;;;;;3.95;3.58;;;;;;;19.35;41.69;95820.44;10331732;28;20409;-59
2022/04/22 16:46:02;;;;;;;3.47;3.17;;;;;;;19.40;41.75;95822.88;10342365;28;20432;-61
2022/04/22 16:51:21;;;;;;;3.83;3.42;;;;;;;19.43;42.14;95835.69;10335502;28;20046;-59
2022/04/22 16:56:41;;;;;;;3.85;3.38;;;;;;;19.46;42.26;95840.38;10324941;28;20058;-59
2022/04/22 17:02:02;;;;;;;4.30;3.75;;;;;;;19.49;42.21;95845.09;10340579;28;20049;-59
2022/04/22 17:07:22;;;;;;;3.95;3.42;;;;;;;19.52;42.45;95847.13;10339125;28;20038;-59
2022/04/22 17:12:42;;;;;;;3.50;3.20;;;;;;;19.55;42.49;95849.13;10317382;28;20062;-59
2022/04/22 17:23:40;;;;;;;6.30;3.40;;;;;;;19.64;42.52;95851.66;10314248;28;20046;-58
2022/04/22 17:28:59;;;;;;;3.50;3.20;;;;;;;19.65;42.39;95852.44;10327097;28;20055;-59
2022/04/22 17:34:19;;;;;;;4.20;3.58;;;;;;;19.68;42.54;95852.53;10330333;28;20512;-58
2022/04/22 17:39:39;;;;;;;4.22;3.10;;;;;;;19.70;42.46;95858.38;10324382;28;20070;-59
2022/04/22 17:44:58;;;;;;;3.63;3.17;;;;;;;19.75;42.59;95854.66;10323490;28;20119;-59
2022/04/22 17:50:19;;;;;;;4.38;3.03;;;;;;;19.77;42.54;95865.91;10303696;28;20490;-60
2022/04/22 17:55:39;;;;;;;4.07;3.17;;;;;;;19.79;42.61;95871.75;10328580;28;20509;-59
2022/04/22 18:00:58;;;;;;;4.03;3.17;;;;;;;19.81;42.67;95869.47;10339891;28;20042;-59
2022/04/22 18:06:17;;;;;;;3.47;3.17;;;;;;;19.85;43.08;95866.88;10325130;28;20053;-59
2022/04/22 18:11:37;;;;;;;4.15;3.08;;;;;;;19.88;43.41;95872.38;10336061;28;20488;-58
2022/04/22 18:16:57;;;;;;;7.43;3.20;;;;;;;19.90;43.78;95872.81;10323946;28;20051;-58
2022/04/22 18:22:16;;;;;;;3.53;3.00;;;;;;;19.94;44.15;95870.97;10333339;28;20050;-55
2022/04/22 18:27:36;;;;;;;4.40;3.00;;;;;;;19.96;44.43;95867.91;10335911;28;20059;-56
2022/04/22 18:32:55;;;;;;;3.97;3.08;;;;;;;19.98;44.39;95878.38;10350502;28;20066;-53
2022/04/22 18:38:15;;;;;;;5.57;3.08;;;;;;;19.99;44.47;95879.94;10353027;28;20039;-57
2022/04/22 18:43:35;;;;;;;7.88;3.20;;;;;;;19.99;44.33;95886.13;10338068;28;20061;-57
2022/04/22 18:48:56;;;;;;;3.63;2.95;;;;;;;20.01;44.28;95888.50;10342859;28;20038;-55
2022/04/22 18:54:16;;;;;;;5.60;3.13;;;;;;;20.02;44.24;95890.84;10333717;28;20637;-56
2022/04/22 18:59:35;;;;;;;4.55;2.83;;;;;;;20.03;44.39;95886.22;10335637;28;20054;-57
2022/04/22 19:04:55;;;;;;;6.15;3.10;;;;;;;20.04;44.29;95882.41;10331854;28;20052;-55
2022/04/22 19:10:17;;;;;;;4.70;2.85;;;;;;;20.05;44.49;95894.75;10345420;28;20046;-56
2022/04/22 19:15:37;;;;;;;3.92;2.70;;;;;;;20.06;44.61;95878.19;10334757;28;20436;-55
2022/04/22 19:20:56;;;;;;;3.97;3.30;;;;;;;20.08;44.89;95883.25;10346011;28;20061;-57
2022/04/22 19:26:16;;;;;;;6.32;2.75;;;;;;;20.10;45.06;95886.41;10331843;28;20054;-55
2022/04/22 19:31:35;;;;;;;3.78;2.92;;;;;;;20.10;45.38;95883.69;10344800;28;20034;-55
2022/04/22 19:42:34;;;;;;;5.35;3.05;;;;;;;20.13;45.95;95885.69;10333050;28;20047;-56
2022/04/22 19:47:53;;;;;;;5.18;3.25;;;;;;;20.11;46.06;95880.66;10320180;28;20417;-55
2022/04/22 19:53:15;;;;;;;6.80;3.00;;;;;;;20.12;46.07;95887.63;10331403;28;20046;-55
2022/04/22 19:58:34;;;;;;;4.03;3.00;;;;;;;20.14;46.25;95887.28;10330439;28;20132;-56
2022/04/22 20:03:54;;;;;;;5.13;3.08;;;;;;;20.14;46.24;95892.69;10330694;28;20192;-56
2022/04/22 20:09:14;;;;;;;4.63;3.20;;;;;;;20.13;46.31;95896.50;10327660;28;20572;-55
2022/04/22 20:14:33;;;;;;;5.18;3.30;;;;;;;20.14;46.31;95898.09;10331828;28;20058;-57
2022/04/22 20:19:52;;;;;;;5.10;3.13;;;;;;;20.14;46.42;95898.88;10330704;28;20055;-56
2022/04/22 20:25:12;;;;;;;4.82;3.05;;;;;;;20.14;46.27;95890.75;10327491;28;20128;-55
2022/04/22 20:30:31;;;;;;;4.75;3.13;;;;;;;20.14;46.32;95895.38;10328564;28;20054;-57
2022/04/22 20:41:30;;;;;;;2.92;2.70;;;;;;;20.15;46.30;95895.03;10326942;28;20412;-56
2022/04/22 20:46:50;;;;;;;4.95;3.10;;;;;;;20.16;46.25;95890.41;10323427;28;20642;-56
2022/04/22 20:52:09;;;;;;;4.10;3.10;;;;;;;20.17;46.23;95902.00;10326508;28;20050;-56
2022/04/22 20:57:29;;;;;;;3.65;2.83;;;;;;;20.15;46.09;95903.16;10323990;28;20053;-56
2022/04/22 21:02:49;;;;;;;4.65;3.05;;;;;;;20.14;46.25;95909.69;10313385;28;20050;-56
2022/04/22 21:08:08;;;;;;;3.47;3.15;;;;;;;20.13;46.26;95910.03;10324725;28;20054;-55
2022/04/22 21:13:29;;;;;;;3.60;2.78;;;;;;;20.13;46.15;95918.13;10318595;28;20108;-56
2022/04/22 21:18:49;;;;;;;4.28;2.90;;;;;;;20.12;46.21;95913.88;10339956;28;20084;-55
2022/04/22 21:24:08;;;;;;;3.35;2.95;;;;;;;20.12;46.27;95913.88;10326191;28;20109;-56
2022/04/22 21:29:27;;;;;;;3.85;2.70;;;;;;;20.11;46.11;95923.09;10324450;28;20057;-55
2022/04/22 21:34:47;;;;;;;3.85;2.90;;;;;;;20.10;46.26;95921.56;10316422;28;20541;-55
2022/04/22 21:40:10;;;;;;;3.47;2.90;;;;;;;20.10;46.18;95924.25;10320432;28;20128;-55
2022/04/22 21:45:29;;;;;;;4.30;3.08;;;;;;;20.09;46.04;95917.25;10314421;28;20124;-56
2022/04/22 21:50:49;;;;;;;4.00;2.63;;;;;;;20.08;46.04;95916.50;10337414;28;20038;-56
2022/04/22 21:56:08;;;;;;;4.00;3.05;;;;;;;20.07;46.05;95927.66;10317426;28;20058;-55
2022/04/22 22:01:28;;;;;;;3.17;2.72;;;;;;;20.08;46.15;95929.22;10309101;28;20122;-56
2022/04/22 22:06:50;;;;;;;3.72;2.70;;;;;;;20.06;46.10;95931.50;10337804;28;20038;-56
2022/04/22 22:12:10;;;;;;;4.57;2.88;;;;;;;20.05;46.23;95929.91;10294943;28;20419;-55
2022/04/22 22:17:30;;;;;;;3.75;3.08;;;;;;;20.04;45.95;95929.13;10317095;28;20046;-55
2022/04/22 22:22:49;;;;;;;3.00;2.70;;;;;;;20.05;45.95;95938.03;10313785;28;20050;-55
2022/04/22 22:28:09;;;;;;;3.72;2.60;;;;;;;20.02;45.96;95934.09;10327579;28;20488;-56
2022/04/22 22:33:28;;;;;;;2.95;2.60;;;;;;;20.02;45.89;95938.75;10318398;28;20051;-56
2022/04/22 22:38:49;;;;;;;4.15;2.70;;;;;;;20.01;45.89;95947.97;10318276;28;20085;-56
2022/04/22 22:44:10;;;;;;;3.35;2.80;;;;;;;19.99;45.95;95928.59;10325312;28;20501;-55
2022/04/22 22:49:29;;;;;;;3.42;2.75;;;;;;;19.99;45.81;95934.00;10319116;28;20058;-55
2022/04/22 22:54:48;;;;;;;2.83;2.60;;;;;;;19.98;45.79;95933.22;10327410;28;20494;-55
2022/04/22 23:00:10;;;;;;;3.00;2.60;;;;;;;19.98;45.81;95932.47;10326514;28;20062;-55
2022/04/22 23:05:30;;;;;;;4.15;2.67;;;;;;;19.97;45.78;95928.16;10309073;28;20061;-55
2022/04/22 23:10:49;;;;;;;3.50;2.83;;;;;;;19.97;45.75;95928.16;10309106;28;20121;-56
2022/04/22 23:16:09;;;;;;;2.80;2.42;;;;;;;19.95;45.70;95929.31;10334615;28;20061;-56
2022/04/22 23:21:32;;;;;;;2.60;2.40;;;;;;;19.94;45.57;95926.97;10325638;28;20046;-56
2022/04/22 23:26:51;;;;;;;4.78;2.55;;;;;;;19.94;45.64;95930.44;10312757;28;20416;-56
2022/04/22 23:32:10;;;;;;;3.20;2.70;;;;;;;19.93;45.52;95936.19;10324265;28;20244;-56
2022/04/22 23:37:29;;;;;;;4.50;2.40;;;;;;;19.91;45.57;95925.72;10301183;28;20156;-55
2022/04/22 23:42:49;;;;;;;3.13;2.35;;;;;;;19.90;45.45;95921.44;10331172;28;20050;-56
2022/04/22 23:48:08;;;;;;;2.63;2.42;;;;;;;19.90;45.53;95916.03;10315598;28;20406;-56
2022/04/22 23:53:29;;;;;;;2.67;2.42;;;;;;;19.88;45.35;95912.91;10294483;28;20055;-54
2022/04/22 23:58:49;;;;;;;2.40;2.20;;;;;;;19.88;45.53;95918.31;10307337;28;20043;-56
